sensor_id;sensor_type;location;lat;lon;timestamp;P1;durP1;ratioP1;P2;durP2;ratioP2
69244;SDS011;56357;52.304;4.870;2023-03-09T00:00:43;5.77;;;1.80;;
69244;SDS011;56357;52.304;4.870;2023-03-09T00:03:09;4.85;;;1.90;;
69244;SDS011;56357;52.304;4.870;2023-03-09T00:05:41;4.35;;;1.90;;
69244;SDS011;56357;52.304;4.870;2023-03-09T00:08:08;5.05;;;1.90;;
69244;SDS011;56357;52.304;4.870;2023-03-09T00:10:38;5.10;;;1.83;;
69244;SDS011;56357;52.304;4.870;2023-03-09T00:13:06;4.30;;;1.93;;
69244;SDS011;56357;52.304;4.870;2023-03-09T00:15:32;6.88;;;2.00;;
69244;SDS011;56357;52.304;4.870;2023-03-09T00:17:59;5.00;;;1.80;;
69244;SDS011;56357;52.304;4.870;2023-03-09T00:20:25;5.15;;;1.77;;
69244;SDS011;56357;52.304;4.870;2023-03-09T00:22:52;5.80;;;2.50;;
69244;SDS011;56357;52.304;4.870;2023-03-09T00:25:20;5.13;;;1.97;;
69244;SDS011;56357;52.304;4.870;2023-03-09T00:27:48;5.20;;;1.85;;
69244;SDS011;56357;52.304;4.870;2023-03-09T00:30:17;4.63;;;1.75;;
69244;SDS011;56357;52.304;4.870;2023-03-09T00:32:45;4.90;;;1.60;;
69244;SDS011;56357;52.304;4.870;2023-03-09T00:35:11;4.25;;;1.60;;
69244;SDS011;56357;52.304;4.870;2023-03-09T00:37:38;5.23;;;1.60;;
69244;SDS011;56357;52.304;4.870;2023-03-09T00:40:05;5.60;;;1.58;;
69244;SDS011;56357;52.304;4.870;2023-03-09T00:42:35;4.22;;;1.52;;
69244;SDS011;56357;52.304;4.870;2023-03-09T00:45:04;4.22;;;1.23;;
69244;SDS011;56357;52.304;4.870;2023-03-09T00:47:31;4.70;;;1.52;;
69244;SDS011;56357;52.304;4.870;2023-03-09T00:49:57;4.90;;;1.77;;
69244;SDS011;56357;52.304;4.870;2023-03-09T00:52:24;4.00;;;1.52;;
69244;SDS011;56357;52.304;4.870;2023-03-09T00:54:50;4.40;;;1.50;;
69244;SDS011;56357;52.304;4.870;2023-03-09T00:57:19;4.10;;;1.35;;
69244;SDS011;56357;52.304;4.870;2023-03-09T00:59:46;4.03;;;1.55;;
69244;SDS011;56357;52.304;4.870;2023-03-09T01:02:13;3.80;;;1.20;;
69244;SDS011;56357;52.304;4.870;2023-03-09T01:04:39;4.80;;;1.50;;
69244;SDS011;56357;52.304;4.870;2023-03-09T01:07:06;3.72;;;1.20;;
69244;SDS011;56357;52.304;4.870;2023-03-09T01:09:32;4.40;;;1.52;;
69244;SDS011;56357;52.304;4.870;2023-03-09T01:11:59;4.68;;;1.50;;
69244;SDS011;56357;52.304;4.870;2023-03-09T01:14:25;3.93;;;1.17;;
69244;SDS011;56357;52.304;4.870;2023-03-09T01:16:51;4.22;;;1.30;;
69244;SDS011;56357;52.304;4.870;2023-03-09T01:19:18;4.38;;;1.60;;
69244;SDS011;56357;52.304;4.870;2023-03-09T01:21:44;5.05;;;1.25;;
69244;SDS011;56357;52.304;4.870;2023-03-09T01:24:11;3.92;;;1.25;;
69244;SDS011;56357;52.304;4.870;2023-03-09T01:26:37;4.07;;;1.10;;
69244;SDS011;56357;52.304;4.870;2023-03-09T01:29:03;4.15;;;1.20;;
69244;SDS011;56357;52.304;4.870;2023-03-09T01:31:30;4.30;;;1.30;;
69244;SDS011;56357;52.304;4.870;2023-03-09T01:33:56;4.35;;;1.00;;
69244;SDS011;56357;52.304;4.870;2023-03-09T01:36:23;4.88;;;1.60;;
69244;SDS011;56357;52.304;4.870;2023-03-09T01:38:49;3.50;;;1.10;;
69244;SDS011;56357;52.304;4.870;2023-03-09T01:41:16;4.15;;;1.10;;
69244;SDS011;56357;52.304;4.870;2023-03-09T01:43:46;3.60;;;1.13;;
69244;SDS011;56357;52.304;4.870;2023-03-09T01:54:42;3.90;;;1.20;;
69244;SDS011;56357;52.304;4.870;2023-03-09T01:57:21;4.68;;;1.27;;
69244;SDS011;56357;52.304;4.870;2023-03-09T01:59:56;3.80;;;1.17;;
69244;SDS011;56357;52.304;4.870;2023-03-09T02:02:33;3.42;;;1.13;;
69244;SDS011;56357;52.304;4.870;2023-03-09T02:05:05;3.13;;;1.00;;
69244;SDS011;56357;52.304;4.870;2023-03-09T02:07:35;3.70;;;0.93;;
69244;SDS011;56357;52.304;4.870;2023-03-09T02:10:09;3.72;;;1.05;;
69244;SDS011;56357;52.304;4.870;2023-03-09T02:12:42;3.38;;;0.88;;
69244;SDS011;56357;52.304;4.870;2023-03-09T02:15:17;3.80;;;1.30;;
69244;SDS011;56357;52.304;4.870;2023-03-09T02:17:45;3.50;;;1.10;;
69244;SDS011;56357;52.304;4.870;2023-03-09T02:23:05;4.38;;;1.35;;
69244;SDS011;56357;52.304;4.870;2023-03-09T02:25:41;4.30;;;1.10;;
69244;SDS011;56357;52.304;4.870;2023-03-09T02:28:20;3.53;;;1.00;;
69244;SDS011;56357;52.304;4.870;2023-03-09T02:30:46;3.40;;;0.90;;
69244;SDS011;56357;52.304;4.870;2023-03-09T02:33:26;3.42;;;0.93;;
69244;SDS011;56357;52.304;4.870;2023-03-09T02:35:56;4.78;;;1.00;;
69244;SDS011;56357;52.304;4.870;2023-03-09T02:38:24;3.30;;;0.80;;
69244;SDS011;56357;52.304;4.870;2023-03-09T02:40:50;3.80;;;1.05;;
69244;SDS011;56357;52.304;4.870;2023-03-09T02:43:21;3.47;;;1.00;;
69244;SDS011;56357;52.304;4.870;2023-03-09T02:45:52;3.30;;;0.85;;
69244;SDS011;56357;52.304;4.870;2023-03-09T02:48:19;3.47;;;0.80;;
69244;SDS011;56357;52.304;4.870;2023-03-09T02:50:45;4.13;;;1.08;;
69244;SDS011;56357;52.304;4.870;2023-03-09T02:53:12;3.40;;;0.80;;
69244;SDS011;56357;52.304;4.870;2023-03-09T02:55:38;3.10;;;0.60;;
69244;SDS011;56357;52.304;4.870;2023-03-09T02:58:05;3.95;;;1.00;;
69244;SDS011;56357;52.304;4.870;2023-03-09T03:00:31;3.40;;;0.80;;
69244;SDS011;56357;52.304;4.870;2023-03-09T03:02:58;4.75;;;0.85;;
69244;SDS011;56357;52.304;4.870;2023-03-09T03:05:25;4.80;;;0.90;;
69244;SDS011;56357;52.304;4.870;2023-03-09T03:07:51;3.53;;;0.90;;
69244;SDS011;56357;52.304;4.870;2023-03-09T03:10:18;3.10;;;0.80;;
69244;SDS011;56357;52.304;4.870;2023-03-09T03:12:44;3.72;;;0.77;;
69244;SDS011;56357;52.304;4.870;2023-03-09T03:15:11;4.18;;;1.10;;
69244;SDS011;56357;52.304;4.870;2023-03-09T03:17:38;3.90;;;1.08;;
69244;SDS011;56357;52.304;4.870;2023-03-09T03:20:04;3.57;;;0.80;;
69244;SDS011;56357;52.304;4.870;2023-03-09T03:22:37;3.35;;;0.70;;
69244;SDS011;56357;52.304;4.870;2023-03-09T03:25:03;3.67;;;1.00;;
69244;SDS011;56357;52.304;4.870;2023-03-09T03:27:30;3.60;;;0.80;;
69244;SDS011;56357;52.304;4.870;2023-03-09T03:29:57;3.47;;;0.80;;
69244;SDS011;56357;52.304;4.870;2023-03-09T03:32:25;3.03;;;0.60;;
69244;SDS011;56357;52.304;4.870;2023-03-09T03:34:52;3.38;;;0.90;;
69244;SDS011;56357;52.304;4.870;2023-03-09T03:37:18;3.28;;;0.70;;
69244;SDS011;56357;52.304;4.870;2023-03-09T03:39:45;2.97;;;0.63;;
69244;SDS011;56357;52.304;4.870;2023-03-09T03:42:11;3.58;;;0.82;;
69244;SDS011;56357;52.304;4.870;2023-03-09T03:44:38;3.27;;;0.90;;
69244;SDS011;56357;52.304;4.870;2023-03-09T03:47:04;4.13;;;1.10;;
69244;SDS011;56357;52.304;4.870;2023-03-09T03:49:31;4.20;;;1.10;;
69244;SDS011;56357;52.304;4.870;2023-03-09T03:51:57;3.95;;;0.80;;
69244;SDS011;56357;52.304;4.870;2023-03-09T03:54:24;4.80;;;0.95;;
69244;SDS011;56357;52.304;4.870;2023-03-09T03:56:51;3.80;;;0.90;;
69244;SDS011;56357;52.304;4.870;2023-03-09T03:59:17;3.67;;;1.10;;
69244;SDS011;56357;52.304;4.870;2023-03-09T04:01:44;4.07;;;1.20;;
69244;SDS011;56357;52.304;4.870;2023-03-09T04:04:11;3.70;;;1.10;;
69244;SDS011;56357;52.304;4.870;2023-03-09T04:06:37;3.42;;;0.80;;
69244;SDS011;56357;52.304;4.870;2023-03-09T04:09:03;3.50;;;0.87;;
69244;SDS011;56357;52.304;4.870;2023-03-09T04:11:30;4.25;;;1.00;;
69244;SDS011;56357;52.304;4.870;2023-03-09T04:13:57;3.40;;;0.80;;
69244;SDS011;56357;52.304;4.870;2023-03-09T04:16:23;3.85;;;1.00;;
69244;SDS011;56357;52.304;4.870;2023-03-09T04:18:50;4.15;;;1.10;;
69244;SDS011;56357;52.304;4.870;2023-03-09T04:21:16;3.40;;;0.90;;
69244;SDS011;56357;52.304;4.870;2023-03-09T04:23:43;3.97;;;0.95;;
69244;SDS011;56357;52.304;4.870;2023-03-09T04:26:09;3.20;;;0.75;;
69244;SDS011;56357;52.304;4.870;2023-03-09T04:28:36;3.70;;;0.90;;
69244;SDS011;56357;52.304;4.870;2023-03-09T04:31:03;3.35;;;0.80;;
69244;SDS011;56357;52.304;4.870;2023-03-09T04:33:29;3.27;;;0.70;;
69244;SDS011;56357;52.304;4.870;2023-03-09T04:35:56;3.83;;;0.90;;
69244;SDS011;56357;52.304;4.870;2023-03-09T04:38:22;4.57;;;1.02;;
69244;SDS011;56357;52.304;4.870;2023-03-09T04:40:49;4.47;;;1.10;;
69244;SDS011;56357;52.304;4.870;2023-03-09T04:43:15;4.63;;;1.30;;
69244;SDS011;56357;52.304;4.870;2023-03-09T04:45:41;3.77;;;1.30;;
69244;SDS011;56357;52.304;4.870;2023-03-09T04:48:08;4.55;;;1.05;;
69244;SDS011;56357;52.304;4.870;2023-03-09T04:50:34;4.65;;;1.17;;
69244;SDS011;56357;52.304;4.870;2023-03-09T04:53:01;4.03;;;1.20;;
69244;SDS011;56357;52.304;4.870;2023-03-09T04:55:27;4.82;;;1.17;;
69244;SDS011;56357;52.304;4.870;2023-03-09T04:57:53;3.90;;;0.97;;
69244;SDS011;56357;52.304;4.870;2023-03-09T05:00:20;4.32;;;1.08;;
69244;SDS011;56357;52.304;4.870;2023-03-09T05:02:48;4.07;;;1.35;;
69244;SDS011;56357;52.304;4.870;2023-03-09T05:05:14;4.45;;;1.10;;
69244;SDS011;56357;52.304;4.870;2023-03-09T05:07:41;4.60;;;1.20;;
69244;SDS011;56357;52.304;4.870;2023-03-09T05:10:08;4.07;;;1.10;;
69244;SDS011;56357;52.304;4.870;2023-03-09T05:12:36;4.35;;;1.55;;
69244;SDS011;56357;52.304;4.870;2023-03-09T05:15:03;4.68;;;1.48;;
69244;SDS011;56357;52.304;4.870;2023-03-09T05:17:29;4.97;;;1.23;;
69244;SDS011;56357;52.304;4.870;2023-03-09T05:19:56;4.30;;;1.40;;
69244;SDS011;56357;52.304;4.870;2023-03-09T05:22:22;4.43;;;1.20;;
69244;SDS011;56357;52.304;4.870;2023-03-09T05:24:49;5.40;;;1.48;;
69244;SDS011;56357;52.304;4.870;2023-03-09T05:27:15;4.40;;;1.30;;
69244;SDS011;56357;52.304;4.870;2023-03-09T05:29:42;4.90;;;1.63;;
69244;SDS011;56357;52.304;4.870;2023-03-09T05:32:08;4.68;;;1.30;;
69244;SDS011;56357;52.304;4.870;2023-03-09T05:34:35;4.53;;;1.47;;
69244;SDS011;56357;52.304;4.870;2023-03-09T05:37:01;4.55;;;1.55;;
69244;SDS011;56357;52.304;4.870;2023-03-09T05:39:28;4.60;;;1.65;;
69244;SDS011;56357;52.304;4.870;2023-03-09T05:41:55;4.60;;;1.83;;
69244;SDS011;56357;52.304;4.870;2023-03-09T05:44:21;4.95;;;1.60;;
69244;SDS011;56357;52.304;4.870;2023-03-09T05:46:47;4.40;;;1.63;;
69244;SDS011;56357;52.304;4.870;2023-03-09T05:49:14;4.30;;;1.52;;
69244;SDS011;56357;52.304;4.870;2023-03-09T05:51:40;5.47;;;1.55;;
69244;SDS011;56357;52.304;4.870;2023-03-09T05:54:07;4.63;;;1.58;;
69244;SDS011;56357;52.304;4.870;2023-03-09T05:56:33;4.90;;;1.80;;
69244;SDS011;56357;52.304;4.870;2023-03-09T05:59:00;4.50;;;1.50;;
69244;SDS011;56357;52.304;4.870;2023-03-09T06:01:28;5.55;;;1.85;;
69244;SDS011;56357;52.304;4.870;2023-03-09T06:03:56;4.78;;;1.83;;
69244;SDS011;56357;52.304;4.870;2023-03-09T06:06:22;5.10;;;1.83;;
69244;SDS011;56357;52.304;4.870;2023-03-09T06:08:49;5.28;;;1.90;;
69244;SDS011;56357;52.304;4.870;2023-03-09T06:11:16;5.60;;;1.83;;
69244;SDS011;56357;52.304;4.870;2023-03-09T06:13:42;5.32;;;1.92;;
69244;SDS011;56357;52.304;4.870;2023-03-09T06:16:11;5.05;;;2.00;;
69244;SDS011;56357;52.304;4.870;2023-03-09T06:18:40;5.60;;;1.90;;
69244;SDS011;56357;52.304;4.870;2023-03-09T06:21:08;4.88;;;1.55;;
69244;SDS011;56357;52.304;4.870;2023-03-09T06:23:35;5.67;;;1.87;;
69244;SDS011;56357;52.304;4.870;2023-03-09T06:26:06;7.18;;;2.10;;
69244;SDS011;56357;52.304;4.870;2023-03-09T06:28:33;6.10;;;2.10;;
69244;SDS011;56357;52.304;4.870;2023-03-09T06:31:04;6.18;;;2.50;;
69244;SDS011;56357;52.304;4.870;2023-03-09T06:33:37;9.02;;;2.90;;
69244;SDS011;56357;52.304;4.870;2023-03-09T06:36:04;10.10;;;3.20;;
69244;SDS011;56357;52.304;4.870;2023-03-09T06:38:31;7.22;;;2.63;;
69244;SDS011;56357;52.304;4.870;2023-03-09T06:40:58;8.85;;;3.58;;
69244;SDS011;56357;52.304;4.870;2023-03-09T06:43:24;8.30;;;3.45;;
69244;SDS011;56357;52.304;4.870;2023-03-09T06:45:50;12.25;;;4.13;;
69244;SDS011;56357;52.304;4.870;2023-03-09T06:48:17;12.20;;;4.40;;
69244;SDS011;56357;52.304;4.870;2023-03-09T06:50:44;11.40;;;3.67;;
69244;SDS011;56357;52.304;4.870;2023-03-09T06:53:11;9.90;;;3.58;;
69244;SDS011;56357;52.304;4.870;2023-03-09T06:55:38;9.85;;;3.10;;
69244;SDS011;56357;52.304;4.870;2023-03-09T06:58:05;7.65;;;3.17;;
69244;SDS011;56357;52.304;4.870;2023-03-09T07:00:32;10.10;;;3.30;;
69244;SDS011;56357;52.304;4.870;2023-03-09T07:03:02;7.85;;;2.70;;
69244;SDS011;56357;52.304;4.870;2023-03-09T07:05:29;10.00;;;2.70;;
69244;SDS011;56357;52.304;4.870;2023-03-09T07:07:56;8.68;;;2.50;;
69244;SDS011;56357;52.304;4.870;2023-03-09T07:10:22;10.60;;;2.45;;
69244;SDS011;56357;52.304;4.870;2023-03-09T07:12:48;10.23;;;2.60;;
69244;SDS011;56357;52.304;4.870;2023-03-09T07:15:15;10.18;;;2.47;;
69244;SDS011;56357;52.304;4.870;2023-03-09T07:17:42;9.63;;;3.40;;
69244;SDS011;56357;52.304;4.870;2023-03-09T07:20:09;7.55;;;2.65;;
69244;SDS011;56357;52.304;4.870;2023-03-09T07:22:36;14.20;;;3.03;;
69244;SDS011;56357;52.304;4.870;2023-03-09T07:25:03;12.27;;;3.13;;
69244;SDS011;56357;52.304;4.870;2023-03-09T07:27:30;11.63;;;2.55;;
69244;SDS011;56357;52.304;4.870;2023-03-09T07:29:57;9.63;;;2.88;;
69244;SDS011;56357;52.304;4.870;2023-03-09T07:32:24;7.88;;;2.75;;
69244;SDS011;56357;52.304;4.870;2023-03-09T07:34:50;7.63;;;2.90;;
69244;SDS011;56357;52.304;4.870;2023-03-09T07:37:16;8.17;;;2.57;;
69244;SDS011;56357;52.304;4.870;2023-03-09T07:39:43;7.75;;;2.50;;
69244;SDS011;56357;52.304;4.870;2023-03-09T07:42:09;9.60;;;2.40;;
69244;SDS011;56357;52.304;4.870;2023-03-09T07:44:36;7.18;;;2.55;;
69244;SDS011;56357;52.304;4.870;2023-03-09T07:47:02;7.72;;;2.92;;
69244;SDS011;56357;52.304;4.870;2023-03-09T07:49:29;7.37;;;2.70;;
69244;SDS011;56357;52.304;4.870;2023-03-09T07:51:55;8.32;;;2.75;;
69244;SDS011;56357;52.304;4.870;2023-03-09T07:54:22;6.47;;;2.40;;
69244;SDS011;56357;52.304;4.870;2023-03-09T07:56:48;5.60;;;2.20;;
69244;SDS011;56357;52.304;4.870;2023-03-09T07:59:16;8.88;;;3.22;;
69244;SDS011;56357;52.304;4.870;2023-03-09T08:01:43;8.37;;;2.67;;
69244;SDS011;56357;52.304;4.870;2023-03-09T08:04:10;6.95;;;2.50;;
69244;SDS011;56357;52.304;4.870;2023-03-09T08:06:38;6.50;;;2.40;;
69244;SDS011;56357;52.304;4.870;2023-03-09T08:09:05;7.35;;;2.67;;
69244;SDS011;56357;52.304;4.870;2023-03-09T08:11:32;6.95;;;2.60;;
69244;SDS011;56357;52.304;4.870;2023-03-09T08:13:59;5.70;;;2.10;;
69244;SDS011;56357;52.304;4.870;2023-03-09T08:16:26;11.25;;;2.85;;
69244;SDS011;56357;52.304;4.870;2023-03-09T08:18:52;6.28;;;2.63;;
69244;SDS011;56357;52.304;4.870;2023-03-09T08:21:19;6.28;;;2.28;;
69244;SDS011;56357;52.304;4.870;2023-03-09T08:23:46;6.97;;;2.55;;
69244;SDS011;56357;52.304;4.870;2023-03-09T08:26:15;7.43;;;2.20;;
69244;SDS011;56357;52.304;4.870;2023-03-09T08:28:43;5.82;;;2.28;;
69244;SDS011;56357;52.304;4.870;2023-03-09T08:31:14;5.93;;;2.72;;
69244;SDS011;56357;52.304;4.870;2023-03-09T08:33:43;5.40;;;2.45;;
69244;SDS011;56357;52.304;4.870;2023-03-09T08:36:10;6.50;;;2.80;;
69244;SDS011;56357;52.304;4.870;2023-03-09T08:38:42;6.00;;;2.70;;
69244;SDS011;56357;52.304;4.870;2023-03-09T08:41:09;6.50;;;2.85;;
69244;SDS011;56357;52.304;4.870;2023-03-09T08:43:36;6.47;;;2.50;;
69244;SDS011;56357;52.304;4.870;2023-03-09T08:46:02;4.90;;;1.85;;
69244;SDS011;56357;52.304;4.870;2023-03-09T08:48:29;5.82;;;2.10;;
69244;SDS011;56357;52.304;4.870;2023-03-09T08:50:55;6.50;;;2.43;;
69244;SDS011;56357;52.304;4.870;2023-03-09T08:53:24;6.47;;;2.47;;
69244;SDS011;56357;52.304;4.870;2023-03-09T08:55:51;5.07;;;2.22;;
69244;SDS011;56357;52.304;4.870;2023-03-09T08:58:17;6.00;;;2.50;;
69244;SDS011;56357;52.304;4.870;2023-03-09T09:00:44;6.38;;;2.65;;
69244;SDS011;56357;52.304;4.870;2023-03-09T09:03:12;7.03;;;2.10;;
69244;SDS011;56357;52.304;4.870;2023-03-09T09:05:38;5.95;;;2.55;;
69244;SDS011;56357;52.304;4.870;2023-03-09T09:08:05;7.03;;;2.72;;
69244;SDS011;56357;52.304;4.870;2023-03-09T09:10:31;5.60;;;2.40;;
69244;SDS011;56357;52.304;4.870;2023-03-09T09:12:59;5.72;;;2.45;;
69244;SDS011;56357;52.304;4.870;2023-03-09T09:15:26;5.47;;;2.10;;
69244;SDS011;56357;52.304;4.870;2023-03-09T09:17:52;6.80;;;2.85;;
69244;SDS011;56357;52.304;4.870;2023-03-09T09:20:19;5.75;;;2.42;;
69244;SDS011;56357;52.304;4.870;2023-03-09T09:22:46;6.68;;;2.65;;
69244;SDS011;56357;52.304;4.870;2023-03-09T09:25:12;6.45;;;2.90;;
69244;SDS011;56357;52.304;4.870;2023-03-09T09:27:39;7.70;;;2.30;;
69244;SDS011;56357;52.304;4.870;2023-03-09T09:30:05;5.75;;;2.53;;
69244;SDS011;56357;52.304;4.870;2023-03-09T09:32:34;6.47;;;2.80;;
69244;SDS011;56357;52.304;4.870;2023-03-09T09:35:01;5.78;;;2.47;;
69244;SDS011;56357;52.304;4.870;2023-03-09T09:37:29;5.50;;;2.22;;
69244;SDS011;56357;52.304;4.870;2023-03-09T09:39:56;6.70;;;2.50;;
69244;SDS011;56357;52.304;4.870;2023-03-09T09:42:25;7.32;;;2.80;;
69244;SDS011;56357;52.304;4.870;2023-03-09T09:44:55;5.57;;;2.30;;
69244;SDS011;56357;52.304;4.870;2023-03-09T09:47:24;5.65;;;2.60;;
69244;SDS011;56357;52.304;4.870;2023-03-09T09:49:55;6.25;;;2.88;;
69244;SDS011;56357;52.304;4.870;2023-03-09T09:52:25;5.60;;;2.60;;
69244;SDS011;56357;52.304;4.870;2023-03-09T09:58:18;6.97;;;2.72;;
69244;SDS011;56357;52.304;4.870;2023-03-09T10:01:10;5.28;;;2.33;;
69244;SDS011;56357;52.304;4.870;2023-03-09T10:03:44;6.25;;;2.85;;
69244;SDS011;56357;52.304;4.870;2023-03-09T10:06:17;6.77;;;2.90;;
69244;SDS011;56357;52.304;4.870;2023-03-09T10:08:46;6.50;;;2.80;;
69244;SDS011;56357;52.304;4.870;2023-03-09T10:16:58;8.05;;;3.08;;
69244;SDS011;56357;52.304;4.870;2023-03-09T10:19:34;7.30;;;2.70;;
69244;SDS011;56357;52.304;4.870;2023-03-09T10:22:14;6.32;;;2.60;;
69244;SDS011;56357;52.304;4.870;2023-03-09T10:24:48;6.30;;;2.63;;
69244;SDS011;56357;52.304;4.870;2023-03-09T10:32:30;6.53;;;2.87;;
69244;SDS011;56357;52.304;4.870;2023-03-09T10:37:49;6.90;;;2.55;;
69244;SDS011;56357;52.304;4.870;2023-03-09T10:40:21;7.15;;;3.00;;
69244;SDS011;56357;52.304;4.870;2023-03-09T10:42:48;6.28;;;2.70;;
69244;SDS011;56357;52.304;4.870;2023-03-09T10:45:18;6.20;;;2.30;;
69244;SDS011;56357;52.304;4.870;2023-03-09T10:47:58;5.68;;;2.80;;
69244;SDS011;56357;52.304;4.870;2023-03-09T10:50:27;6.20;;;2.35;;
69244;SDS011;56357;52.304;4.870;2023-03-09T10:53:14;5.45;;;2.25;;
69244;SDS011;56357;52.304;4.870;2023-03-09T10:55:46;6.00;;;2.45;;
69244;SDS011;56357;52.304;4.870;2023-03-09T10:58:14;6.50;;;2.40;;
69244;SDS011;56357;52.304;4.870;2023-03-09T11:00:53;5.95;;;2.47;;
69244;SDS011;56357;52.304;4.870;2023-03-09T11:03:23;5.68;;;2.50;;
69244;SDS011;56357;52.304;4.870;2023-03-09T11:05:51;5.85;;;2.78;;
69244;SDS011;56357;52.304;4.870;2023-03-09T11:08:22;7.47;;;3.13;;
69244;SDS011;56357;52.304;4.870;2023-03-09T11:11:02;6.20;;;2.43;;
69244;SDS011;56357;52.304;4.870;2023-03-09T11:13:30;5.57;;;2.60;;
69244;SDS011;56357;52.304;4.870;2023-03-09T11:16:04;8.07;;;2.60;;
69244;SDS011;56357;52.304;4.870;2023-03-09T11:18:33;7.60;;;2.78;;
69244;SDS011;56357;52.304;4.870;2023-03-09T11:20:59;5.90;;;2.53;;
69244;SDS011;56357;52.304;4.870;2023-03-09T11:23:30;6.47;;;2.20;;
69244;SDS011;56357;52.304;4.870;2023-03-09T11:26:04;6.35;;;3.00;;
69244;SDS011;56357;52.304;4.870;2023-03-09T11:28:49;6.13;;;2.72;;
69244;SDS011;56357;52.304;4.870;2023-03-09T11:31:17;6.57;;;2.60;;
69244;SDS011;56357;52.304;4.870;2023-03-09T11:33:47;6.35;;;3.13;;
69244;SDS011;56357;52.304;4.870;2023-03-09T11:36:19;4.93;;;2.30;;
69244;SDS011;56357;52.304;4.870;2023-03-09T11:39:16;8.35;;;2.17;;
69244;SDS011;56357;52.304;4.870;2023-03-09T11:41:48;5.60;;;2.45;;
69244;SDS011;56357;52.304;4.870;2023-03-09T11:44:35;6.28;;;2.65;;
69244;SDS011;56357;52.304;4.870;2023-03-09T11:47:06;5.78;;;2.60;;
69244;SDS011;56357;52.304;4.870;2023-03-09T11:49:56;7.97;;;2.90;;
69244;SDS011;56357;52.304;4.870;2023-03-09T11:52:29;6.95;;;2.40;;
69244;SDS011;56357;52.304;4.870;2023-03-09T11:55:02;5.82;;;2.42;;
69244;SDS011;56357;52.304;4.870;2023-03-09T11:57:37;8.20;;;2.95;;
69244;SDS011;56357;52.304;4.870;2023-03-09T12:00:06;6.05;;;2.47;;
69244;SDS011;56357;52.304;4.870;2023-03-09T12:02:51;6.50;;;2.90;;
69244;SDS011;56357;52.304;4.870;2023-03-09T12:05:21;9.02;;;3.00;;
69244;SDS011;56357;52.304;4.870;2023-03-09T12:07:52;5.88;;;2.75;;
69244;SDS011;56357;52.304;4.870;2023-03-09T12:10:31;7.20;;;2.05;;
69244;SDS011;56357;52.304;4.870;2023-03-09T12:13:16;5.85;;;2.35;;
69244;SDS011;56357;52.304;4.870;2023-03-09T12:18:29;7.53;;;2.90;;
69244;SDS011;56357;52.304;4.870;2023-03-09T12:20:59;5.75;;;2.70;;
69244;SDS011;56357;52.304;4.870;2023-03-09T12:28:57;6.10;;;2.33;;
69244;SDS011;56357;52.304;4.870;2023-03-09T12:31:32;6.43;;;2.30;;
69244;SDS011;56357;52.304;4.870;2023-03-09T12:34:03;7.72;;;2.65;;
69244;SDS011;56357;52.304;4.870;2023-03-09T12:36:48;5.35;;;2.30;;
69244;SDS011;56357;52.304;4.870;2023-03-09T12:49:46;6.50;;;2.70;;
69244;SDS011;56357;52.304;4.870;2023-03-09T12:52:38;5.60;;;2.50;;
69244;SDS011;56357;52.304;4.870;2023-03-09T12:55:17;5.00;;;2.20;;
69244;SDS011;56357;52.304;4.870;2023-03-09T12:57:46;6.50;;;2.47;;
69244;SDS011;56357;52.304;4.870;2023-03-09T13:00:22;5.18;;;2.35;;
69244;SDS011;56357;52.304;4.870;2023-03-09T13:02:56;5.57;;;2.10;;
69244;SDS011;56357;52.304;4.870;2023-03-09T13:05:30;4.78;;;2.17;;
69244;SDS011;56357;52.304;4.870;2023-03-09T13:08:22;6.60;;;2.33;;
69244;SDS011;56357;52.304;4.870;2023-03-09T13:14:00;5.70;;;2.15;;
69244;SDS011;56357;52.304;4.870;2023-03-09T13:29:37;6.15;;;2.20;;
69244;SDS011;56357;52.304;4.870;2023-03-09T13:32:33;5.65;;;2.10;;
69244;SDS011;56357;52.304;4.870;2023-03-09T13:37:57;5.53;;;2.08;;
69244;SDS011;56357;52.304;4.870;2023-03-09T13:40:36;5.65;;;2.45;;
69244;SDS011;56357;52.304;4.870;2023-03-09T13:43:14;6.43;;;1.80;;
69244;SDS011;56357;52.304;4.870;2023-03-09T13:45:52;5.63;;;2.10;;
69244;SDS011;56357;52.304;4.870;2023-03-09T13:48:21;4.73;;;1.80;;
69244;SDS011;56357;52.304;4.870;2023-03-09T13:50:48;5.85;;;2.42;;
69244;SDS011;56357;52.304;4.870;2023-03-09T13:55:52;5.90;;;2.60;;
69244;SDS011;56357;52.304;4.870;2023-03-09T13:58:24;5.70;;;2.60;;
69244;SDS011;56357;52.304;4.870;2023-03-09T14:01:00;5.90;;;2.10;;
69244;SDS011;56357;52.304;4.870;2023-03-09T14:03:29;5.95;;;2.30;;
69244;SDS011;56357;52.304;4.870;2023-03-09T14:05:59;5.20;;;2.10;;
69244;SDS011;56357;52.304;4.870;2023-03-09T14:08:25;6.22;;;2.17;;
69244;SDS011;56357;52.304;4.870;2023-03-09T14:10:55;5.10;;;2.30;;
69244;SDS011;56357;52.304;4.870;2023-03-09T14:13:22;5.80;;;2.30;;
69244;SDS011;56357;52.304;4.870;2023-03-09T14:18:25;5.55;;;2.25;;
69244;SDS011;56357;52.304;4.870;2023-03-09T14:20:53;7.53;;;2.55;;
69244;SDS011;56357;52.304;4.870;2023-03-09T14:23:37;4.60;;;1.88;;
69244;SDS011;56357;52.304;4.870;2023-03-09T14:26:05;5.73;;;2.17;;
69244;SDS011;56357;52.304;4.870;2023-03-09T14:28:34;6.07;;;2.53;;
69244;SDS011;56357;52.304;4.870;2023-03-09T14:31:20;5.22;;;2.22;;
69244;SDS011;56357;52.304;4.870;2023-03-09T14:36:35;5.28;;;2.00;;
69244;SDS011;56357;52.304;4.870;2023-03-09T14:39:05;5.97;;;2.53;;
69244;SDS011;56357;52.304;4.870;2023-03-09T14:42:00;5.63;;;2.20;;
69244;SDS011;56357;52.304;4.870;2023-03-09T14:44:36;6.05;;;2.67;;
69244;SDS011;56357;52.304;4.870;2023-03-09T14:47:06;5.45;;;2.30;;
69244;SDS011;56357;52.304;4.870;2023-03-09T14:49:40;5.40;;;2.47;;
69244;SDS011;56357;52.304;4.870;2023-03-09T14:52:08;6.23;;;2.40;;
69244;SDS011;56357;52.304;4.870;2023-03-09T14:54:37;6.07;;;2.28;;
69244;SDS011;56357;52.304;4.870;2023-03-09T14:57:04;5.97;;;2.33;;
69244;SDS011;56357;52.304;4.870;2023-03-09T14:59:30;5.50;;;2.33;;
69244;SDS011;56357;52.304;4.870;2023-03-09T15:01:58;5.22;;;2.38;;
69244;SDS011;56357;52.304;4.870;2023-03-09T15:04:28;5.80;;;1.90;;
69244;SDS011;56357;52.304;4.870;2023-03-09T15:06:56;5.22;;;2.22;;
69244;SDS011;56357;52.304;4.870;2023-03-09T15:09:23;4.88;;;1.92;;
69244;SDS011;56357;52.304;4.870;2023-03-09T15:11:50;4.70;;;1.80;;
69244;SDS011;56357;52.304;4.870;2023-03-09T15:14:24;5.32;;;2.20;;
69244;SDS011;56357;52.304;4.870;2023-03-09T15:16:54;5.23;;;1.97;;
69244;SDS011;56357;52.304;4.870;2023-03-09T15:19:21;4.60;;;1.92;;
69244;SDS011;56357;52.304;4.870;2023-03-09T15:21:50;5.13;;;2.05;;
69244;SDS011;56357;52.304;4.870;2023-03-09T15:24:19;5.93;;;2.15;;
69244;SDS011;56357;52.304;4.870;2023-03-09T15:26:46;4.95;;;1.95;;
69244;SDS011;56357;52.304;4.870;2023-03-09T15:29:12;4.80;;;1.97;;
69244;SDS011;56357;52.304;4.870;2023-03-09T15:31:39;4.55;;;1.70;;
69244;SDS011;56357;52.304;4.870;2023-03-09T15:34:05;4.60;;;1.60;;
69244;SDS011;56357;52.304;4.870;2023-03-09T15:36:32;4.82;;;1.92;;
69244;SDS011;56357;52.304;4.870;2023-03-09T15:38:58;5.43;;;1.90;;
69244;SDS011;56357;52.304;4.870;2023-03-09T15:41:25;4.60;;;1.40;;
69244;SDS011;56357;52.304;4.870;2023-03-09T15:43:52;5.70;;;2.05;;
69244;SDS011;56357;52.304;4.870;2023-03-09T15:46:18;4.43;;;1.50;;
69244;SDS011;56357;52.304;4.870;2023-03-09T15:48:45;5.57;;;1.55;;
69244;SDS011;56357;52.304;4.870;2023-03-09T15:51:12;4.88;;;1.42;;
69244;SDS011;56357;52.304;4.870;2023-03-09T15:53:39;4.87;;;1.40;;
69244;SDS011;56357;52.304;4.870;2023-03-09T15:56:07;4.78;;;1.80;;
69244;SDS011;56357;52.304;4.870;2023-03-09T15:58:35;4.15;;;1.20;;
69244;SDS011;56357;52.304;4.870;2023-03-09T16:01:03;5.13;;;1.40;;
69244;SDS011;56357;52.304;4.870;2023-03-09T16:03:32;3.58;;;1.50;;
69244;SDS011;56357;52.304;4.870;2023-03-09T16:06:00;5.47;;;1.97;;
69244;SDS011;56357;52.304;4.870;2023-03-09T16:08:26;6.65;;;1.67;;
69244;SDS011;56357;52.304;4.870;2023-03-09T16:10:54;6.63;;;2.20;;
69244;SDS011;56357;52.304;4.870;2023-03-09T16:13:21;6.75;;;2.00;;